createdAt,value
2022-10-25T00:01:22.943Z,4.25
2022-10-25T00:03:50.396Z,4.60
2022-10-25T00:06:17.585Z,4.70
2022-10-25T00:08:45.101Z,3.67
2022-10-25T00:11:19.991Z,3.28
2022-10-25T00:13:50.233Z,3.33
2022-10-25T00:16:21.025Z,3.40
2022-10-25T00:18:48.474Z,3.08
2022-10-25T00:21:15.594Z,2.85
2022-10-25T00:23:42.845Z,3.28
2022-10-25T00:26:11.576Z,3.13
2022-10-25T00:28:39.468Z,3.33
2022-10-25T00:31:10.321Z,4.15
2022-10-25T00:33:38.833Z,3.17
2022-10-25T00:36:23.406Z,3.00
2022-10-25T00:38:50.786Z,3.15
2022-10-25T00:41:21.094Z,3.13
2022-10-25T00:43:51.151Z,3.15
2022-10-25T00:46:20.057Z,3.53
2022-10-25T00:49:19.718Z,3.90
2022-10-25T00:51:57.920Z,3.70
2022-10-25T00:54:32.137Z,3.50
2022-10-25T00:57:04.855Z,3.40
2022-10-25T00:59:32.577Z,4.07
2022-10-25T01:02:00.117Z,3.90
2022-10-25T01:04:30.183Z,3.55
2022-10-25T01:06:57.718Z,3.58
2022-10-25T01:09:28.771Z,2.90
2022-10-25T01:11:56.564Z,2.75
2022-10-25T01:14:23.937Z,3.00
2022-10-25T01:17:30.980Z,2.75
2022-10-25T01:20:12.926Z,2.55
2022-10-25T01:22:50.494Z,2.50
2022-10-25T01:25:49.410Z,2.33
2022-10-25T01:28:24.038Z,2.60
2022-10-25T01:30:58.971Z,2.30
2022-10-25T01:33:32.081Z,2.30
2022-10-25T01:36:10.222Z,2.33
2022-10-25T01:38:56.408Z,2.20
2022-10-25T01:41:27.618Z,2.28
2022-10-25T01:44:03.976Z,2.20
2022-10-25T01:46:54.513Z,2.40
2022-10-25T01:49:30.271Z,2.25
2022-10-25T01:51:57.491Z,2.58
2022-10-25T01:54:26.378Z,2.08
2022-10-25T01:57:17.360Z,2.10
2022-10-25T01:59:45.637Z,2.83
2022-10-25T02:02:20.010Z,2.45
2022-10-25T02:04:52.027Z,2.50
2022-10-25T02:07:37.550Z,2.35
2022-10-25T02:10:08.573Z,2.30
2022-10-25T02:13:03.016Z,2.25
2022-10-25T02:15:40.036Z,2.50
2022-10-25T02:18:17.112Z,2.33
2022-10-25T02:20:46.760Z,2.30
2022-10-25T02:23:17.677Z,2.90
2022-10-25T02:25:46.628Z,2.35
2022-10-25T02:28:17.208Z,2.30
2022-10-25T02:30:44.854Z,2.67
2022-10-25T02:33:12.497Z,2.50
2022-10-25T02:35:40.186Z,2.83
2022-10-25T02:38:07.851Z,2.90
2022-10-25T02:40:36.030Z,3.17
2022-10-25T02:43:03.213Z,3.75
2022-10-25T02:45:30.683Z,4.43
2022-10-25T02:47:57.868Z,4.38
2022-10-25T02:50:24.997Z,4.32
2022-10-25T02:52:52.117Z,4.97
2022-10-25T02:55:19.438Z,4.88
2022-10-25T02:57:46.590Z,4.32
2022-10-25T03:00:14.603Z,4.53
2022-10-25T03:02:41.873Z,4.70
2022-10-25T03:05:09.482Z,5.15
2022-10-25T03:07:36.660Z,4.63
2022-10-25T03:10:04.119Z,5.03
2022-10-25T03:12:31.462Z,4.45
2022-10-25T03:14:58.709Z,4.85
2022-10-25T03:17:25.808Z,4.72
2022-10-25T03:19:52.967Z,4.65
2022-10-25T03:22:20.033Z,4.65
2022-10-25T03:24:47.142Z,4.18
2022-10-25T03:27:14.515Z,4.43
2022-10-25T03:29:41.618Z,4.85
2022-10-25T03:32:08.802Z,5.70
2022-10-25T03:34:36.090Z,6.15
2022-10-25T03:37:03.276Z,5.65
2022-10-25T03:39:30.392Z,4.95
2022-10-25T03:41:57.496Z,4.95
2022-10-25T03:44:24.696Z,4.60
2022-10-25T03:46:51.944Z,4.75
2022-10-25T03:49:19.131Z,4.43
2022-10-25T03:51:46.281Z,4.53
2022-10-25T03:54:13.425Z,4.95
2022-10-25T03:56:40.653Z,4.38
2022-10-25T03:59:07.766Z,4.03
2022-10-25T04:01:35.302Z,4.70
2022-10-25T04:04:02.543Z,4.65
2022-10-25T04:06:29.990Z,4.10
2022-10-25T04:08:58.291Z,3.85
2022-10-25T04:11:25.530Z,3.42
2022-10-25T04:13:52.797Z,3.30
2022-10-25T04:16:20.209Z,4.03
2022-10-25T04:18:47.406Z,3.42
2022-10-25T04:21:14.586Z,3.70
2022-10-25T04:23:41.786Z,3.40
2022-10-25T04:26:09.274Z,4.60
2022-10-25T04:28:36.511Z,4.93
2022-10-25T04:31:03.982Z,5.30
2022-10-25T04:33:31.474Z,4.43
2022-10-25T04:35:59.501Z,6.15
2022-10-25T04:38:26.808Z,8.30
2022-10-25T04:40:56.609Z,8.65
2022-10-25T04:43:24.794Z,5.95
2022-10-25T04:45:52.449Z,6.80
2022-10-25T04:48:20.514Z,5.55
2022-10-25T04:50:48.252Z,6.25
2022-10-25T04:53:15.742Z,6.20
2022-10-25T04:55:43.287Z,6.43
2022-10-25T04:58:10.649Z,5.93
2022-10-25T05:00:37.772Z,5.80
2022-10-25T05:03:07.224Z,6.65
2022-10-25T05:05:36.750Z,4.88
2022-10-25T05:08:04.583Z,4.13
2022-10-25T05:10:31.730Z,4.32
2022-10-25T05:12:58.879Z,4.75
2022-10-25T05:15:26.091Z,5.68
2022-10-25T05:17:57.656Z,5.90
2022-10-25T05:20:24.898Z,5.22
2022-10-25T05:22:52.237Z,4.63
2022-10-25T05:25:19.764Z,4.75
2022-10-25T05:27:46.987Z,4.88
2022-10-25T05:30:14.189Z,6.88
2022-10-25T05:32:43.906Z,6.70
2022-10-25T05:35:11.126Z,13.80
2022-10-25T05:37:38.343Z,11.73
2022-10-25T05:40:06.134Z,8.02
2022-10-25T05:42:33.283Z,6.13
2022-10-25T05:45:00.333Z,5.10
2022-10-25T05:47:27.602Z,5.13
2022-10-25T05:49:54.739Z,5.07
2022-10-25T05:52:21.865Z,6.30
2022-10-25T05:54:49.073Z,7.32
2022-10-25T05:57:16.162Z,9.43
2022-10-25T05:59:43.314Z,4.65
2022-10-25T06:02:10.561Z,3.22
2022-10-25T06:04:37.786Z,2.90
2022-10-25T06:07:04.999Z,3.20
2022-10-25T06:09:32.170Z,3.15
2022-10-25T06:11:59.327Z,3.45
2022-10-25T06:14:26.728Z,3.00
2022-10-25T06:16:53.916Z,3.13
2022-10-25T06:19:21.101Z,3.03
2022-10-25T06:21:48.234Z,3.60
2022-10-25T06:24:15.472Z,3.05
2022-10-25T06:26:42.636Z,3.17
2022-10-25T06:29:09.995Z,2.97
2022-10-25T06:31:37.101Z,3.63
2022-10-25T06:34:04.409Z,3.50
2022-10-25T06:36:32.192Z,3.15
2022-10-25T06:39:05.361Z,3.55
2022-10-25T06:41:37.036Z,3.13
2022-10-25T06:44:06.814Z,2.70
2022-10-25T06:46:57.808Z,2.88
2022-10-25T06:49:24.346Z,2.70
2022-10-25T06:51:51.405Z,2.33
2022-10-25T06:54:18.546Z,2.90
2022-10-25T06:56:45.668Z,2.95
2022-10-25T06:59:12.786Z,2.90
2022-10-25T07:01:40.089Z,2.50
2022-10-25T07:04:07.369Z,2.45
2022-10-25T07:06:36.256Z,3.35
2022-10-25T07:09:05.457Z,3.67
2022-10-25T07:11:33.629Z,4.75
2022-10-25T07:14:01.834Z,4.68
2022-10-25T07:16:29.584Z,4.25
2022-10-25T07:19:01.729Z,3.00
2022-10-25T07:21:31.220Z,3.20
2022-10-25T07:23:58.541Z,2.17
2022-10-25T07:26:30.300Z,3.30
2022-10-25T07:28:59.696Z,2.80
2022-10-25T07:31:30.154Z,2.10
2022-10-25T07:33:59.685Z,2.78
2022-10-25T07:36:27.192Z,2.53
2022-10-25T07:38:54.824Z,1.95
2022-10-25T07:41:21.974Z,2.50
2022-10-25T07:43:49.132Z,1.90
2022-10-25T07:46:16.402Z,2.22
2022-10-25T07:48:43.600Z,1.83
2022-10-25T07:51:13.845Z,1.67
2022-10-25T07:53:41.387Z,2.10
2022-10-25T07:56:16.233Z,2.58
2022-10-25T07:58:46.574Z,3.90
2022-10-25T08:01:18.779Z,2.92
2022-10-25T08:03:46.050Z,2.83
2022-10-25T08:06:13.133Z,2.33
2022-10-25T08:08:40.308Z,2.78
2022-10-25T08:11:08.730Z,2.97
2022-10-25T08:13:37.401Z,4.28
2022-10-25T08:16:05.943Z,3.78
2022-10-25T08:18:33.655Z,3.15
2022-10-25T08:21:04.023Z,2.83
2022-10-25T08:23:32.726Z,3.90
2022-10-25T08:26:02.968Z,3.78
2022-10-25T08:28:31.466Z,4.18
2022-10-25T08:31:01.367Z,2.95
2022-10-25T08:33:29.642Z,3.15
2022-10-25T08:36:00.120Z,3.28
2022-10-25T08:38:27.359Z,2.30
2022-10-25T08:41:01.793Z,2.42
2022-10-25T08:46:22.596Z,1.80
2022-10-25T08:49:06.849Z,1.65
2022-10-25T08:51:37.962Z,1.83
2022-10-25T08:54:19.879Z,1.60
2022-10-25T08:57:03.464Z,1.70
2022-10-25T08:59:39.751Z,1.85
2022-10-25T09:02:16.674Z,1.55
2022-10-25T09:04:44.281Z,1.75
2022-10-25T09:07:42.745Z,1.70
2022-10-25T09:10:37.535Z,2.22
2022-10-25T09:13:19.398Z,1.60
2022-10-25T09:16:14.645Z,2.13
2022-10-25T09:18:49.337Z,2.38
2022-10-25T09:21:22.965Z,2.08
2022-10-25T09:23:55.470Z,2.22
2022-10-25T09:26:31.997Z,2.03
2022-10-25T09:29:12.308Z,2.03
2022-10-25T09:31:46.417Z,1.77
2022-10-25T09:36:46.673Z,1.63
2022-10-25T09:39:35.748Z,1.95
2022-10-25T09:42:03.982Z,2.22
2022-10-25T09:45:00.130Z,2.20
2022-10-25T09:47:36.365Z,1.88
2022-10-25T09:50:19.126Z,2.05
2022-10-25T09:53:14.856Z,2.50
2022-10-25T09:56:03.819Z,2.00
2022-10-25T09:58:33.696Z,1.40
2022-10-25T10:01:07.029Z,1.75
2022-10-25T10:03:36.602Z,1.48
2022-10-25T10:06:18.911Z,1.83
2022-10-25T10:09:05.538Z,1.95
2022-10-25T10:11:33.938Z,1.63
2022-10-25T10:14:06.205Z,1.98
2022-10-25T10:16:44.689Z,1.83
2022-10-25T10:19:19.827Z,1.77
2022-10-25T10:21:53.824Z,1.98
2022-10-25T10:24:27.091Z,1.20
2022-10-25T10:26:58.757Z,1.52
2022-10-25T10:29:30.760Z,1.48
2022-10-25T10:32:01.474Z,1.52
2022-10-25T10:34:37.659Z,1.25
2022-10-25T10:37:20.777Z,1.63
2022-10-25T10:40:09.136Z,1.30
2022-10-25T10:42:41.492Z,1.30
2022-10-25T10:45:08.832Z,1.40
2022-10-25T10:47:38.559Z,1.38
2022-10-25T10:50:22.953Z,1.27
2022-10-25T10:53:09.051Z,2.28
2022-10-25T10:55:36.224Z,1.52
2022-10-25T10:58:03.318Z,1.55
2022-10-25T11:00:32.469Z,1.42
2022-10-25T11:03:00.100Z,0.90
2022-10-25T11:05:27.270Z,1.48
2022-10-25T11:07:58.730Z,1.58
2022-10-25T11:10:27.361Z,1.45
2022-10-25T11:13:16.039Z,1.20
2022-10-25T11:16:12.570Z,0.82
2022-10-25T11:19:19.610Z,1.00
2022-10-25T11:22:02.127Z,1.15
2022-10-25T11:24:52.999Z,0.80
2022-10-25T11:28:00.831Z,1.15
2022-10-25T11:30:40.030Z,1.38
2022-10-25T11:33:17.614Z,0.95
2022-10-25T11:36:13.101Z,1.10
2022-10-25T11:39:16.326Z,1.23
2022-10-25T11:41:45.260Z,0.90
2022-10-25T11:44:35.839Z,0.98
2022-10-25T11:47:15.493Z,0.95
2022-10-25T11:49:52.415Z,0.95
2022-10-25T11:53:02.945Z,1.10
2022-10-25T11:55:35.396Z,0.50
2022-10-25T11:58:34.611Z,1.15
2022-10-25T12:01:20.377Z,0.70
2022-10-25T12:04:29.838Z,0.90
2022-10-25T12:07:09.394Z,0.80
2022-10-25T12:09:58.615Z,0.80
2022-10-25T12:12:54.518Z,0.50
2022-10-25T12:15:28.772Z,0.80
2022-10-25T12:17:57.527Z,0.80
2022-10-25T12:20:28.549Z,0.50
2022-10-25T12:23:00.001Z,0.60
2022-10-25T12:25:33.923Z,0.50
2022-10-25T12:28:32.306Z,1.05
2022-10-25T12:31:08.531Z,0.50
2022-10-25T12:33:41.311Z,0.60
2022-10-25T12:36:31.632Z,0.68
2022-10-25T12:39:02.446Z,0.65
2022-10-25T12:41:35.702Z,0.60
2022-10-25T12:44:33.153Z,0.80
2022-10-25T12:47:03.121Z,0.60
2022-10-25T12:49:50.179Z,0.50
2022-10-25T12:52:40.142Z,0.25
2022-10-25T12:55:23.283Z,0.45
2022-10-25T12:58:14.841Z,0.45
2022-10-25T13:00:58.080Z,0.50
2022-10-25T13:03:46.754Z,0.63
2022-10-25T13:06:22.439Z,0.50
2022-10-25T13:08:50.416Z,0.60
2022-10-25T13:11:18.623Z,0.50
2022-10-25T13:13:50.978Z,0.50
2022-10-25T13:16:29.365Z,0.50
2022-10-25T13:19:53.049Z,0.60
2022-10-25T13:22:40.160Z,0.60
2022-10-25T13:25:37.769Z,0.50
2022-10-25T13:28:16.170Z,0.40
2022-10-25T13:30:44.824Z,0.40
2022-10-25T13:33:22.191Z,0.40
2022-10-25T13:35:49.372Z,0.28
2022-10-25T13:38:27.507Z,0.30
2022-10-25T13:41:16.724Z,0.50
2022-10-25T13:44:05.216Z,0.40
2022-10-25T13:46:38.583Z,0.50
2022-10-25T13:49:33.253Z,0.30
2022-10-25T13:52:05.379Z,0.47
2022-10-25T13:54:48.854Z,0.43
2022-10-25T13:57:56.137Z,0.40
2022-10-25T14:00:26.849Z,0.40
2022-10-25T14:03:16.437Z,0.20
2022-10-25T14:06:00.112Z,0.40
2022-10-25T14:08:35.338Z,0.38
2022-10-25T14:11:09.999Z,0.38
2022-10-25T14:14:02.466Z,0.50
2022-10-25T14:16:33.215Z,0.45
2022-10-25T14:19:16.944Z,0.45
2022-10-25T14:21:47.724Z,0.50
2022-10-25T14:24:17.111Z,0.22
2022-10-25T14:26:57.869Z,0.40
2022-10-25T14:29:27.756Z,0.30
2022-10-25T14:31:56.666Z,0.30
2022-10-25T14:34:26.665Z,0.40
2022-10-25T14:36:56.581Z,0.80
2022-10-25T14:39:26.733Z,0.50
2022-10-25T14:41:58.650Z,0.40
2022-10-25T14:44:29.680Z,0.63
2022-10-25T14:46:58.998Z,0.43
2022-10-25T14:49:27.547Z,0.50
2022-10-25T14:52:00.170Z,0.40
2022-10-25T14:54:32.995Z,0.47
2022-10-25T14:57:03.631Z,0.30
2022-10-25T14:59:42.739Z,0.52
2022-10-25T15:02:19.521Z,0.30
2022-10-25T15:04:50.213Z,0.45
2022-10-25T15:07:21.904Z,0.50
2022-10-25T15:09:50.814Z,0.40
2022-10-25T15:12:21.360Z,0.45
2022-10-25T15:14:49.220Z,0.50
2022-10-25T15:17:23.458Z,0.50
2022-10-25T15:20:03.235Z,0.50
2022-10-25T15:22:34.311Z,0.82
2022-10-25T15:25:01.612Z,0.50
2022-10-25T15:27:35.647Z,0.60
2022-10-25T15:30:05.159Z,0.40
2022-10-25T15:32:34.075Z,0.63
2022-10-25T15:35:01.960Z,0.60
2022-10-25T15:37:30.401Z,0.50
2022-10-25T15:39:58.055Z,0.60
2022-10-25T15:42:27.046Z,0.52
2022-10-25T15:44:56.258Z,0.60
2022-10-25T15:47:31.383Z,0.57
2022-10-25T15:50:03.402Z,0.50
2022-10-25T15:52:31.294Z,0.30
2022-10-25T15:54:58.531Z,0.40
2022-10-25T15:57:27.494Z,0.50
2022-10-25T15:59:55.900Z,0.50
2022-10-25T16:02:28.744Z,0.55
2022-10-25T16:04:59.291Z,0.50
2022-10-25T16:07:27.036Z,0.32
2022-10-25T16:09:54.366Z,0.45
2022-10-25T16:12:28.314Z,0.43
2022-10-25T16:14:56.590Z,0.50
2022-10-25T16:17:23.891Z,0.90
2022-10-25T16:19:52.838Z,0.73
2022-10-25T16:22:20.214Z,2.50
2022-10-25T16:24:47.361Z,3.20
2022-10-25T16:27:15.169Z,2.85
2022-10-25T16:29:42.433Z,2.20
2022-10-25T16:32:09.660Z,1.80
2022-10-25T16:34:37.638Z,2.00
2022-10-25T16:37:07.789Z,2.20
2022-10-25T16:39:37.886Z,2.83
2022-10-25T16:42:05.474Z,2.50
2022-10-25T16:44:32.660Z,2.80
2022-10-25T16:47:00.175Z,2.78
2022-10-25T16:49:27.382Z,3.22
2022-10-25T16:51:54.568Z,3.90
2022-10-25T16:54:24.103Z,3.63
2022-10-25T16:56:51.432Z,2.63
2022-10-25T16:59:18.701Z,1.85
2022-10-25T17:01:46.967Z,1.20
2022-10-25T17:04:17.310Z,0.95
2022-10-25T17:06:44.657Z,1.30
2022-10-25T17:09:11.857Z,0.85
2022-10-25T17:11:39.064Z,1.42
2022-10-25T17:14:06.896Z,1.35
2022-10-25T17:16:34.827Z,2.03
2022-10-25T17:19:04.305Z,1.95
2022-10-25T17:21:33.383Z,1.80
2022-10-25T17:24:00.843Z,1.83
2022-10-25T17:26:28.126Z,1.90
2022-10-25T17:28:55.260Z,1.90
2022-10-25T17:31:22.729Z,2.03
2022-10-25T17:33:49.928Z,1.80
2022-10-25T17:36:19.288Z,2.00
2022-10-25T17:38:47.603Z,1.95
2022-10-25T17:41:16.890Z,2.25
2022-10-25T17:43:44.352Z,2.25
2022-10-25T17:46:20.393Z,2.30
2022-10-25T17:48:47.927Z,1.98
2022-10-25T17:51:16.957Z,2.33
2022-10-25T17:53:44.208Z,2.50
2022-10-25T17:56:18.054Z,3.05
2022-10-25T17:58:47.411Z,3.00
2022-10-25T18:01:18.160Z,3.03
2022-10-25T18:03:46.389Z,3.15
2022-10-25T18:06:17.733Z,3.05
2022-10-25T18:08:46.342Z,2.65
2022-10-25T18:11:23.975Z,3.13
2022-10-25T18:13:54.075Z,2.92
2022-10-25T18:16:28.943Z,2.53
2022-10-25T18:19:05.026Z,3.03
2022-10-25T18:21:41.709Z,2.67
2022-10-25T18:24:19.650Z,3.30
2022-10-25T18:26:55.408Z,3.10
2022-10-25T18:29:24.532Z,3.30
2022-10-25T18:31:53.211Z,3.83
2022-10-25T18:34:21.009Z,4.28
2022-10-25T18:36:48.142Z,4.63
2022-10-25T18:39:18.836Z,5.07
2022-10-25T18:41:48.005Z,4.35
2022-10-25T18:44:15.703Z,5.22
2022-10-25T18:46:43.077Z,6.22
2022-10-25T18:49:14.289Z,5.88
2022-10-25T18:51:41.820Z,5.07
2022-10-25T18:54:11.617Z,5.22
2022-10-25T18:56:39.235Z,6.07
2022-10-25T18:59:07.002Z,5.78
2022-10-25T19:01:38.825Z,5.60
2022-10-25T19:04:08.319Z,6.97
2022-10-25T19:06:35.543Z,7.95
2022-10-25T19:09:04.999Z,7.82
2022-10-25T19:11:33.414Z,7.10
2022-10-25T19:14:03.174Z,7.60
2022-10-25T19:16:30.465Z,7.28
2022-10-25T19:19:00.972Z,7.05
2022-10-25T19:21:36.021Z,6.88
2022-10-25T19:24:06.463Z,6.53
2022-10-25T19:26:33.821Z,6.22
2022-10-25T19:29:01.448Z,6.43
2022-10-25T19:31:29.413Z,6.40
2022-10-25T19:34:00.385Z,6.18
2022-10-25T19:36:34.285Z,6.50
2022-10-25T19:39:03.561Z,6.60
2022-10-25T19:41:32.816Z,6.03
2022-10-25T19:44:00.632Z,6.53
2022-10-25T19:46:27.898Z,6.45
2022-10-25T19:48:56.714Z,5.78
2022-10-25T19:51:29.089Z,5.85
2022-10-25T19:53:57.037Z,7.22
2022-10-25T19:56:26.998Z,21.17
2022-10-25T19:58:54.449Z,11.63
2022-10-25T20:01:25.290Z,8.43
2022-10-25T20:04:03.995Z,7.15
2022-10-25T20:06:35.829Z,6.40
2022-10-25T20:09:03.419Z,5.93
2022-10-25T20:11:32.429Z,5.05
2022-10-25T20:14:01.261Z,5.72
2022-10-25T20:16:29.696Z,4.97
2022-10-25T20:18:59.906Z,6.07
2022-10-25T20:21:33.171Z,9.18
2022-10-25T20:26:39.137Z,9.88
2022-10-25T20:29:21.206Z,8.73
2022-10-25T20:31:51.104Z,8.27
2022-10-25T20:34:26.839Z,5.90
2022-10-25T20:36:57.018Z,5.00
2022-10-25T20:39:24.544Z,4.65
2022-10-25T20:41:59.449Z,4.53
2022-10-25T20:44:27.730Z,4.78
2022-10-25T20:47:01.772Z,4.50
2022-10-25T20:49:29.575Z,4.18
2022-10-25T20:51:59.343Z,3.75
2022-10-25T20:54:27.998Z,4.13
2022-10-25T20:56:55.551Z,4.18
2022-10-25T20:59:22.934Z,4.10
2022-10-25T21:01:50.363Z,3.72
2022-10-25T21:04:25.875Z,4.28
2022-10-25T21:07:06.811Z,5.57
2022-10-25T21:09:35.769Z,5.80
2022-10-25T21:12:03.766Z,5.55
2022-10-25T21:14:30.988Z,5.32
2022-10-25T21:16:58.926Z,4.97
2022-10-25T21:19:26.453Z,5.25
2022-10-25T21:21:53.604Z,4.38
2022-10-25T21:24:23.802Z,3.88
2022-10-25T21:26:54.280Z,4.72
2022-10-25T21:29:22.032Z,3.83
2022-10-25T21:31:50.419Z,3.47
2022-10-25T21:36:50.038Z,3.60
2022-10-25T21:39:22.825Z,3.63
2022-10-25T21:41:51.048Z,3.70
2022-10-25T21:44:19.503Z,4.15
2022-10-25T21:46:47.275Z,3.72
2022-10-25T21:49:14.827Z,3.55
2022-10-25T21:51:42.158Z,3.92
2022-10-25T21:54:09.250Z,4.93
2022-10-25T21:56:37.788Z,4.93
2022-10-25T21:59:04.959Z,6.63
2022-10-25T22:01:32.358Z,6.20
2022-10-25T22:04:00.253Z,6.68
2022-10-25T22:06:27.886Z,4.63
2022-10-25T22:08:56.561Z,4.63
2022-10-25T22:11:27.281Z,5.90
2022-10-25T22:13:58.635Z,5.97
2022-10-25T22:16:26.841Z,7.32
2022-10-25T22:18:59.064Z,7.25
2022-10-25T22:21:28.785Z,7.30
2022-10-25T22:23:56.187Z,5.35
2022-10-25T22:26:24.472Z,4.50
2022-10-25T22:28:53.512Z,4.50
2022-10-25T22:31:21.956Z,4.72
2022-10-25T22:33:57.472Z,3.60
2022-10-25T22:36:27.365Z,3.95
2022-10-25T22:38:55.308Z,2.58
2022-10-25T22:41:24.773Z,3.35
2022-10-25T22:43:52.431Z,3.88
2022-10-25T22:46:24.594Z,4.95
2022-10-25T22:48:54.528Z,4.90
2022-10-25T22:51:25.236Z,4.40
2022-10-25T22:53:52.426Z,4.38
2022-10-25T22:56:23.228Z,4.05
2022-10-25T22:58:52.964Z,4.70
2022-10-25T23:01:24.618Z,4.88
2022-10-25T23:03:54.776Z,4.20
2022-10-25T23:06:25.867Z,4.13
2022-10-25T23:08:54.922Z,3.70
2022-10-25T23:11:28.003Z,4.05
2022-10-25T23:13:56.396Z,4.15
2022-10-25T23:16:24.090Z,3.95
2022-10-25T23:18:51.960Z,3.13
2022-10-25T23:21:24.002Z,2.78
2022-10-25T23:23:52.799Z,3.10
2022-10-25T23:26:32.364Z,3.67
2022-10-25T23:29:01.004Z,3.35
2022-10-25T23:31:29.737Z,4.25
2022-10-25T23:33:59.747Z,3.80
2022-10-25T23:36:29.205Z,3.70
2022-10-25T23:38:58.243Z,4.57
2022-10-25T23:41:26.162Z,4.57
2022-10-25T23:43:53.390Z,5.30
2022-10-25T23:46:20.951Z,5.07
2022-10-25T23:48:48.282Z,5.22
2022-10-25T23:51:18.496Z,4.45
2022-10-25T23:53:45.809Z,5.50
2022-10-25T23:56:14.151Z,5.10
2022-10-25T23:58:41.910Z,4.45
